Time;durP1;ratioP1;P1;durP2;ratioP2;P2;SDS_P1;SDS_P2;PMS_P1;PMS_P2;Temp;Humidity;BMP_temperature;BMP_pressure;BME280_temperature;BME280_humidity;BME280_pressure;Samples;Min_cycle;Max_cycle;Signal;HPM_P1;HPM_P2
2023/12/12 00:01:22;;;;;;;;;;;;;;;8.49;100.00;98415.94;5116687;27;20711;-96
2023/12/12 00:03:48;;;;;;;;;;;;;;;8.46;100.00;98418.94;5093840;27;19922;-96
2023/12/12 00:06:14;;;;;;;;;;;;;;;8.41;100.00;98412.38;5102966;27;19923;-96
2023/12/12 00:08:40;;;;;;;;;;;;;;;8.41;100.00;98412.38;5104760;27;20363;-96
2023/12/12 00:11:06;;;;;;;;;;;;;;;8.39;100.00;98406.47;5118781;27;19944;-96
2023/12/12 00:13:32;;;;;;;;;;;;;;;8.36;100.00;98403.38;5102768;27;19915;-96
2023/12/12 00:15:57;;;;;;;;;;;;;;;8.33;100.00;98404.56;5093345;27;20275;-96
2023/12/12 00:18:23;;;;;;;;;;;;;;;8.33;100.00;98412.44;5101354;27;20282;-96
2023/12/12 00:20:49;;;;;;;;;;;;;;;8.32;100.00;98400.28;5089614;27;19927;-90
2023/12/12 00:23:15;;;;;;;;;;;;;;;8.34;100.00;98400.13;5097897;27;19971;-90
2023/12/12 00:25:41;;;;;;;;;;;;;;;8.36;100.00;98401.56;5090340;27;20002;-95
2023/12/12 00:28:07;;;;;;;;;;;;;;;8.39;100.00;98395.94;5095366;27;19922;-96
2023/12/12 00:30:35;;;;;;;;;;;;;;;8.43;100.00;98394.59;5092576;27;19915;-96
2023/12/12 00:33:03;;;;;;;;;;;;;;;8.48;100.00;98396.66;5111750;27;19984;-96
2023/12/12 00:35:31;;;;;;;;;;;;;;;8.51;100.00;98396.31;5093953;27;19916;-96
2023/12/12 00:37:57;;;;;;;;;;;;;;;8.53;100.00;98388.22;5097591;27;19915;-96
2023/12/12 00:40:23;;;;;;;;;;;;;;;8.55;100.00;98388.91;5104326;27;20367;-96
2023/12/12 00:42:48;;;;;;;;;;;;;;;8.57;100.00;98381.63;5100545;27;19916;-96
2023/12/12 00:45:16;;;;;;;;;;;;;;;8.57;100.00;98378.97;5113993;27;19919;-96
2023/12/12 00:47:49;;;;;;;;;;;;;;;8.58;100.00;98379.81;5098046;27;19945;-96
2023/12/12 00:50:18;;;;;;;;;;;;;;;8.58;100.00;98374.53;5103438;27;19915;-96
2023/12/12 00:52:46;;;;;;;;;;;;;;;8.61;100.00;98374.19;5096478;27;19938;-96
2023/12/12 00:55:15;;;;;;;;;;;;;;;8.62;100.00;98362.63;5094075;27;19919;-96
2023/12/12 00:57:41;;;;;;;;;;;;;;;8.62;100.00;98355.56;5097476;27;20425;-96
2023/12/12 01:00:12;;;;;;;;;;;;;;;8.64;100.00;98361.47;5089416;27;19923;-96
2023/12/12 01:02:38;;;;;;;;;;;;;;;8.66;100.00;98353.38;5099409;27;19926;-96
2023/12/12 01:05:04;;;;;;;;;;;;;;;8.67;100.00;98345.31;5090893;27;19915;-96
2023/12/12 01:07:30;;;;;;;;;;;;;;;8.71;100.00;98347.56;5097538;27;20256;-96
2023/12/12 01:09:56;;;;;;;;;;;;;;;8.73;100.00;98340.31;5096092;27;19915;-96
2023/12/12 01:12:22;;;;;;;;;;;;;;;8.75;100.00;98346.19;5099812;27;20010;-91
2023/12/12 01:14:48;;;;;;;;;;;;;;;8.77;100.00;98336.28;5104388;27;19922;-91
2023/12/12 01:17:14;;;;;;;;;;;;;;;8.77;100.00;98323.94;5103510;27;19923;-96
2023/12/12 01:19:40;;;;;;;;;;;;;;;8.77;100.00;98323.94;5102460;27;19951;-96
2023/12/12 01:22:08;;;;;;;;;;;;;;;8.78;100.00;98322.94;5092464;27;20268;-91
2023/12/12 01:24:34;;;;;;;;;;;;;;;8.79;100.00;98313.22;5103987;27;19921;-91
2023/12/12 01:27:03;;;;;;;;;;;;;;;8.80;100.00;98310.41;5096025;27;19915;-91
2023/12/12 01:29:36;;;;;;;;;;;;;;;8.81;100.00;98306.75;5097535;27;20279;-91
2023/12/12 01:32:02;;;;;;;;;;;;;;;8.86;100.00;98310.63;5092821;27;20001;-96
2023/12/12 01:34:31;;;;;;;;;;;;;;;8.86;100.00;98300.09;5099283;27;19968;-96
2023/12/12 01:36:59;;;;;;;;;;;;;;;8.86;100.00;98303.56;5089564;27;20274;-96
2023/12/12 01:39:34;;;;;;;;;;;;;;;8.87;100.00;98307.03;5095641;27;19923;-96
2023/12/12 01:42:00;;;;;;;;;;;;;;;8.84;100.00;98300.28;5093360;27;20371;-96
2023/12/12 01:44:26;;;;;;;;;;;;;;;8.83;100.00;98303.09;5085078;27;20418;-96
2023/12/12 01:46:52;;;;;;;;;;;;;;;8.79;100.00;98300.06;5084281;28;20271;-96
2023/12/12 01:49:21;;;;;;;;;;;;;;;8.77;100.00;98304.69;5092955;28;19916;-96
2023/12/12 01:51:47;;;;;;;;;;;;;;;8.75;100.00;98304.03;5084315;28;20014;-96
2023/12/12 01:54:16;;;;;;;;;;;;;;;8.75;100.00;98296.13;5091284;28;19951;-96
2023/12/12 01:56:43;;;;;;;;;;;;;;;8.75;100.00;98298.78;5107160;27;19919;-91
2023/12/12 01:59:09;;;;;;;;;;;;;;;8.75;100.00;98293.50;5078996;28;19923;-91
2023/12/12 02:01:40;;;;;;;;;;;;;;;8.75;100.00;98294.34;5089099;27;19919;-96
2023/12/12 02:04:09;;;;;;;;;;;;;;;8.75;100.00;98290.88;5096357;28;20011;-96
2023/12/12 02:06:35;;;;;;;;;;;;;;;8.74;100.00;98297.97;5087011;28;19915;-96
2023/12/12 02:09:01;;;;;;;;;;;;;;;8.75;100.00;98290.88;5110777;28;20313;-96
2023/12/12 02:11:29;;;;;;;;;;;;;;;8.73;100.00;98290.25;5085187;28;20466;-96
2023/12/12 02:13:55;;;;;;;;;;;;;;;8.71;100.00;98287.81;5093340;28;19948;-96
2023/12/12 02:16:23;;;;;;;;;;;;;;;8.71;100.00;98284.34;5098704;28;19915;-96
2023/12/12 02:18:49;;;;;;;;;;;;;;;8.72;100.00;98278.91;5088496;28;19999;-96
2023/12/12 02:21:19;;;;;;;;;;;;;;;8.73;100.00;98277.88;5085402;28;19919;-96
2023/12/12 02:23:47;;;;;;;;;;;;;;;8.74;100.00;98271.63;5092024;28;20359;-95
2023/12/12 02:26:13;;;;;;;;;;;;;;;8.75;100.00;98261.91;5095073;28;20322;-96
2023/12/12 02:28:40;;;;;;;;;;;;;;;8.76;100.00;98274.09;5101001;27;19988;-96
2023/12/12 02:31:05;;;;;;;;;;;;;;;8.75;100.00;98269.78;5103984;28;19958;-96
2023/12/12 02:33:33;;;;;;;;;;;;;;;8.76;100.00;98266.19;5092214;27;19926;-96
2023/12/12 02:35:59;;;;;;;;;;;;;;;8.78;100.00;98264.16;5086180;27;19915;-96
2023/12/12 02:38:27;;;;;;;;;;;;;;;8.79;100.00;98265.81;5093445;27;19922;-96
2023/12/12 02:40:53;;;;;;;;;;;;;;;8.78;100.00;98258.88;5100940;28;19928;-96
2023/12/12 02:43:19;;;;;;;;;;;;;;;8.79;100.00;98253.44;5097718;27;19974;-96
2023/12/12 02:45:44;;;;;;;;;;;;;;;8.77;100.00;98252.81;5107934;28;20006;-96
2023/12/12 02:48:11;;;;;;;;;;;;;;;8.76;100.00;98248.53;5090944;28;19937;-96
2023/12/12 02:50:39;;;;;;;;;;;;;;;8.75;100.00;98252.19;5100090;28;19940;-96
2023/12/12 02:53:07;;;;;;;;;;;;;;;8.74;100.00;98247.09;5100754;27;19916;-96
2023/12/12 02:55:33;;;;;;;;;;;;;;;8.72;100.00;98234.13;5094271;27;19915;-96
2023/12/12 02:57:59;;;;;;;;;;;;;;;8.72;100.00;98235.94;5097698;27;19915;-96
2023/12/12 03:00:25;;;;;;;;;;;;;;;8.71;100.00;98231.69;5088672;27;19950;-96
2023/12/12 03:02:50;;;;;;;;;;;;;;;8.71;100.00;98229.88;5100743;27;19977;-96
2023/12/12 03:05:16;;;;;;;;;;;;;;;8.68;100.00;98227.59;5100998;27;19986;-91
2023/12/12 03:07:42;;;;;;;;;;;;;;;8.65;100.00;98227.97;5095800;28;19922;-90
2023/12/12 03:10:07;;;;;;;;;;;;;;;8.61;100.00;98224.91;5095070;27;19919;-90
2023/12/12 03:12:33;;;;;;;;;;;;;;;8.60;100.00;98231.16;5110472;28;20287;-95
2023/12/12 03:14:59;;;;;;;;;;;;;;;8.61;100.00;98219.63;5096148;27;19922;-96
2023/12/12 03:17:24;;;;;;;;;;;;;;;8.62;100.00;98226.53;5101328;27;19915;-96
2023/12/12 03:19:50;;;;;;;;;;;;;;;8.61;100.00;98224.06;5098948;28;19916;-95
2023/12/12 03:22:16;;;;;;;;;;;;;;;8.62;100.00;98218.63;5098905;28;19920;-89
2023/12/12 03:24:41;;;;;;;;;;;;;;;8.61;100.00;98217.00;5070428;28;19922;-90
2023/12/12 03:27:08;;;;;;;;;;;;;;;8.60;100.00;98204.03;5081143;27;19947;-96
2023/12/12 03:29:34;;;;;;;;;;;;;;;8.55;100.00;98202.75;5104276;28;19987;-95
2023/12/12 03:31:59;;;;;;;;;;;;;;;8.52;100.00;98207.56;5084066;28;20061;-96
2023/12/12 03:34:25;;;;;;;;;;;;;;;8.45;100.00;98202.22;5098236;28;19963;-96
2023/12/12 03:36:51;;;;;;;;;;;;;;;8.41;100.00;98193.03;5102015;28;20459;-96
2023/12/12 03:39:16;;;;;;;;;;;;;;;8.39;100.00;98202.97;5109326;28;19926;-96
2023/12/12 03:41:43;;;;;;;;;;;;;;;8.35;100.00;98202.50;5085911;28;19955;-96
2023/12/12 03:44:08;;;;;;;;;;;;;;;8.37;100.00;98203.16;5092181;27;20002;-96
2023/12/12 03:46:34;;;;;;;;;;;;;;;8.41;100.00;98198.31;5094927;28;20414;-96
2023/12/12 03:49:00;;;;;;;;;;;;;;;8.44;100.00;98195.34;5062425;28;19916;-96
2023/12/12 03:51:25;;;;;;;;;;;;;;;8.47;100.00;98197.59;5068735;28;19928;-96
2023/12/12 03:53:51;;;;;;;;;;;;;;;8.50;100.00;98194.59;5087183;28;19917;-96
2023/12/12 03:56:17;;;;;;;;;;;;;;;8.51;100.00;98192.75;5061263;28;19920;-96
2023/12/12 03:58:42;;;;;;;;;;;;;;;8.50;100.00;98193.75;5060266;28;19920;-96
2023/12/12 04:01:08;;;;;;;;;;;;;;;8.49;100.00;98190.31;5055502;28;19920;-96
2023/12/12 04:03:34;;;;;;;;;;;;;;;8.51;100.00;98195.38;5048549;28;20745;-96
2023/12/12 04:06:03;;;;;;;;;;;;;;;8.48;100.00;98186.03;5075237;28;19916;-96
2023/12/12 04:08:29;;;;;;;;;;;;;;;8.48;100.00;98193.13;5064590;28;19922;-96
2023/12/12 04:10:54;;;;;;;;;;;;;;;8.48;100.00;98190.50;5054811;28;19916;-96
2023/12/12 04:13:20;;;;;;;;;;;;;;;8.48;100.00;98191.31;5048447;28;19945;-96
2023/12/12 04:15:46;;;;;;;;;;;;;;;8.47;100.00;98180.97;5058052;28;19915;-91
2023/12/12 04:18:12;;;;;;;;;;;;;;;8.47;100.00;98183.59;5063784;28;19916;-91
2023/12/12 04:20:37;;;;;;;;;;;;;;;8.47;100.00;98184.44;5050735;28;19916;-96
2023/12/12 04:23:03;;;;;;;;;;;;;;;8.48;100.00;98187.84;5067308;28;19947;-96
2023/12/12 04:25:29;;;;;;;;;;;;;;;8.46;100.00;98180.16;5060502;28;19920;-96
2023/12/12 04:27:55;;;;;;;;;;;;;;;8.47;100.00;98179.16;5067809;28;19916;-96
2023/12/12 04:30:21;;;;;;;;;;;;;;;8.48;100.00;98174.69;5069680;28;19915;-96
2023/12/12 04:32:46;;;;;;;;;;;;;;;8.48;100.00;98182.59;5050039;28;19923;-96
2023/12/12 04:35:12;;;;;;;;;;;;;;;8.50;100.00;98176.16;5060134;28;19931;-96
2023/12/12 04:37:38;;;;;;;;;;;;;;;8.51;100.00;98174.31;5075407;28;19916;-96
2023/12/12 04:40:03;;;;;;;;;;;;;;;8.52;100.00;98176.75;5089896;28;19924;-96
2023/12/12 04:42:30;;;;;;;;;;;;;;;8.53;100.00;98180.22;5063277;28;19920;-96
2023/12/12 04:44:56;;;;;;;;;;;;;;;8.52;100.00;98171.50;5081822;28;19922;-96
2023/12/12 04:47:21;;;;;;;;;;;;;;;8.52;100.00;98173.34;5066319;28;20011;-96
2023/12/12 04:49:47;;;;;;;;;;;;;;;8.51;100.00;98174.31;5077181;28;20007;-96
2023/12/12 04:52:13;;;;;;;;;;;;;;;8.50;100.00;98175.31;5057375;28;19920;-96
2023/12/12 04:54:39;;;;;;;;;;;;;;;8.49;100.00;98169.25;5064323;28;19923;-96
2023/12/12 04:57:04;;;;;;;;;;;;;;;8.46;100.00;98161.72;5060444;28;19916;-96
2023/12/12 04:59:30;;;;;;;;;;;;;;;8.40;100.00;98162.47;5068605;28;19915;-96
2023/12/12 05:01:56;;;;;;;;;;;;;;;8.34;100.00;98161.41;5070593;28;20022;-96
2023/12/12 05:04:21;;;;;;;;;;;;;;;8.31;100.00;98162.56;5058736;28;19916;-96
2023/12/12 05:06:47;;;;;;;;;;;;;;;8.29;100.00;98159.34;5078785;28;20602;-96
2023/12/12 05:09:13;;;;;;;;;;;;;;;8.28;100.00;98159.53;5067905;28;19975;-96
2023/12/12 05:11:38;;;;;;;;;;;;;;;8.26;100.00;98154.44;5060967;28;20364;-96
2023/12/12 05:14:07;;;;;;;;;;;;;;;8.22;100.00;98155.00;5060108;28;19923;-96
2023/12/12 05:16:32;;;;;;;;;;;;;;;8.19;100.00;98161.44;5064884;28;19927;-96
2023/12/12 05:18:58;;;;;;;;;;;;;;;8.15;100.00;98161.00;5092970;28;20360;-96
2023/12/12 05:21:25;;;;;;;;;;;;;;;8.10;100.00;98157.28;5061932;28;19920;-96
2023/12/12 05:23:50;;;;;;;;;;;;;;;8.04;100.00;98159.66;5059249;28;19954;-96
2023/12/12 05:26:18;;;;;;;;;;;;;;;8.00;100.00;98157.56;5057839;28;19915;-96
2023/12/12 05:28:44;;;;;;;;;;;;;;;7.97;100.00;98157.94;5075693;28;20011;-96
2023/12/12 05:31:10;;;;;;;;;;;;;;;7.91;100.00;98164.75;5044052;28;19917;-96
2023/12/12 05:33:35;;;;;;;;;;;;;;;7.90;100.00;98158.69;5051991;28;19915;-96
2023/12/12 05:36:01;;;;;;;;;;;;;;;7.91;100.00;98162.97;5061003;28;20367;-96
2023/12/12 05:38:26;;;;;;;;;;;;;;;7.91;100.00;98157.69;5067462;28;19916;-96
2023/12/12 05:40:52;;;;;;;;;;;;;;;7.96;100.00;98153.69;5057402;28;19923;-96
2023/12/12 05:43:18;;;;;;;;;;;;;;;7.96;100.00;98157.16;5068996;28;20360;-96
2023/12/12 05:45:45;;;;;;;;;;;;;;;7.98;100.00;98151.69;5067850;27;19916;-96
2023/12/12 05:48:11;;;;;;;;;;;;;;;7.97;100.00;98148.25;5120215;27;19919;-96
2023/12/12 05:50:36;;;;;;;;;;;;;;;7.88;100.00;98144.09;5088924;27;20405;-96
2023/12/12 05:53:02;;;;;;;;;;;;;;;7.81;100.00;98144.81;5114077;27;19939;-96
2023/12/12 05:55:28;;;;;;;;;;;;;;;7.82;100.00;98145.63;5093200;27;19915;-96
2023/12/12 05:57:53;;;;;;;;;;;;;;;7.87;100.00;98147.72;5086019;28;19916;-96
2023/12/12 06:00:19;;;;;;;;;;;;;;;7.87;100.00;98151.16;5078621;28;19916;-96
2023/12/12 06:02:45;;;;;;;;;;;;;;;7.85;100.00;98147.09;5097130;28;19920;-96
2023/12/12 06:05:11;;;;;;;;;;;;;;;7.86;100.00;98146.91;5075774;28;19927;-96
2023/12/12 06:07:37;;;;;;;;;;;;;;;7.86;100.00;98148.72;5078398;28;20252;-96
2023/12/12 06:10:04;;;;;;;;;;;;;;;7.85;100.00;98144.47;5067986;28;20002;-96
2023/12/12 06:12:30;;;;;;;;;;;;;;;7.87;100.00;98142.47;5073737;28;19923;-91
2023/12/12 06:14:56;;;;;;;;;;;;;;;7.86;100.00;98144.28;5071782;28;19915;-91
2023/12/12 06:17:22;;;;;;;;;;;;;;;7.86;100.00;98152.16;5096839;28;19959;-96
2023/12/12 06:19:47;;;;;;;;;;;;;;;7.89;100.00;98148.34;5108522;28;19963;-96
2023/12/12 06:22:14;;;;;;;;;;;;;;;7.88;100.00;98147.53;5072217;28;19955;-90
2023/12/12 06:24:41;;;;;;;;;;;;;;;7.87;100.00;98151.16;5091315;28;19927;-92
2023/12/12 06:27:06;;;;;;;;;;;;;;;7.87;100.00;98145.91;5082265;28;19915;-96
2023/12/12 06:29:32;;;;;;;;;;;;;;;7.74;100.00;98146.53;5083025;28;19919;-96
2023/12/12 06:31:58;;;;;;;;;;;;;;;7.67;100.00;98143.84;5079126;28;19912;-96
2023/12/12 06:34:23;;;;;;;;;;;;;;;7.67;100.00;98143.03;5077384;28;19916;-96
2023/12/12 06:36:49;;;;;;;;;;;;;;;7.68;100.00;98142.84;5082657;28;19916;-96
2023/12/12 06:39:15;;;;;;;;;;;;;;;7.72;100.00;98140.66;5090907;28;19923;-96
2023/12/12 06:41:40;;;;;;;;;;;;;;;7.73;100.00;98144.09;5082132;28;19919;-92
2023/12/12 06:44:06;;;;;;;;;;;;;;;7.74;100.00;98143.91;5072835;28;20264;-93
2023/12/12 06:46:32;;;;;;;;;;;;;;;7.74;100.00;98143.91;5097020;28;19919;-96
2023/12/12 06:48:57;;;;;;;;;;;;;;;7.78;100.00;98149.63;5074765;28;20022;-96
2023/12/12 06:51:23;;;;;;;;;;;;;;;7.78;100.00;98145.19;5079740;28;19916;-96
2023/12/12 06:53:52;;;;;;;;;;;;;;;7.80;100.00;98150.28;5110862;28;20370;-96
2023/12/12 06:56:19;;;;;;;;;;;;;;;7.82;100.00;98140.34;5077058;28;19916;-96
2023/12/12 06:58:46;;;;;;;;;;;;;;;7.81;100.00;98142.19;5105970;28;19968;-96
2023/12/12 07:01:13;;;;;;;;;;;;;;;7.81;100.00;98141.38;5096049;28;19920;-92
2023/12/12 07:03:38;;;;;;;;;;;;;;;7.83;100.00;98144.63;5080099;28;20418;-92
2023/12/12 07:06:04;;;;;;;;;;;;;;;7.87;100.00;98138.00;5076894;28;19954;-96
2023/12/12 07:08:30;;;;;;;;;;;;;;;7.91;100.00;98143.72;5098921;28;19968;-96
2023/12/12 07:10:55;;;;;;;;;;;;;;;7.95;100.00;98144.97;5076705;28;19916;-96
2023/12/12 07:13:21;;;;;;;;;;;;;;;7.94;100.00;98141.53;5089674;28;19925;-96
2023/12/12 07:15:47;;;;;;;;;;;;;;;7.97;100.00;98142.16;5082184;27;19927;-96
2023/12/12 07:18:14;;;;;;;;;;;;;;;7.97;100.00;98140.34;5084598;27;19919;-96
2023/12/12 07:20:41;;;;;;;;;;;;;;;7.91;100.00;98141.09;5083416;28;19916;-96
2023/12/12 07:23:06;;;;;;;;;;;;;;;7.78;100.00;98145.19;5083800;27;20397;-96
2023/12/12 07:25:32;;;;;;;;;;;;;;;7.71;100.00;98143.47;5083876;27;19920;-96
2023/12/12 07:27:58;;;;;;;;;;;;;;;7.65;100.00;98143.22;5097820;27;19929;-96
2023/12/12 07:30:24;;;;;;;;;;;;;;;7.63;100.00;98142.56;5092091;27;19937;-92
2023/12/12 07:32:49;;;;;;;;;;;;;;;7.60;100.00;98139.50;5075922;27;20348;-93
2023/12/12 07:35:16;;;;;;;;;;;;;;;7.57;100.00;98141.50;5076795;27;19926;-92
2023/12/12 07:37:42;;;;;;;;;;;;;;;7.52;100.00;98146.47;5088260;27;19924;-96
2023/12/12 07:40:08;;;;;;;;;;;;;;;7.52;100.00;98143.84;5093043;28;19968;-96
2023/12/12 07:42:34;;;;;;;;;;;;;;;7.48;100.00;98136.50;5069747;27;20014;-96
2023/12/12 07:45:01;;;;;;;;;;;;;;;7.40;100.00;98137.41;5086439;27;19976;-96
2023/12/12 07:47:27;;;;;;;;;;;;;;;7.37;100.00;98133.34;5076358;27;20026;-92
2023/12/12 07:49:55;;;;;;;;;;;;;;;7.36;100.00;98134.31;5082661;28;20480;-92
2023/12/12 07:52:21;;;;;;;;;;;;;;;7.37;100.00;98132.50;5102622;27;20006;-96
2023/12/12 07:54:46;;;;;;;;;;;;;;;7.38;100.00;98124.44;5089696;27;19943;-96
2023/12/12 07:57:12;;;;;;;;;;;;;;;7.42;100.00;98127.53;5097292;28;19920;-91
2023/12/12 07:59:37;;;;;;;;;;;;;;;7.44;100.00;98133.41;5080498;27;20309;-92
2023/12/12 08:02:03;;;;;;;;;;;;;;;7.43;100.00;98134.41;5083636;27;19919;-92
2023/12/12 08:04:29;;;;;;;;;;;;;;;7.45;100.00;98137.69;5095875;27;20014;-92
2023/12/12 08:06:54;;;;;;;;;;;;;;;7.47;100.00;98140.13;5074148;27;19916;-91
2023/12/12 08:09:20;;;;;;;;;;;;;;;7.46;100.00;98144.56;5074370;28;19922;-92
2023/12/12 08:11:46;;;;;;;;;;;;;;;7.45;100.00;98141.13;5081257;28;19975;-96
2023/12/12 08:14:12;;;;;;;;;;;;;;;7.45;100.00;98138.47;5110745;27;19998;-96
2023/12/12 08:16:37;;;;;;;;;;;;;;;7.43;100.00;98144.94;5083687;27;19967;-96
2023/12/12 08:19:03;;;;;;;;;;;;;;;7.38;100.00;98145.47;5089829;27;20446;-96
2023/12/12 08:21:29;;;;;;;;;;;;;;;7.34;100.00;98146.00;5085694;27;19965;-96
2023/12/12 08:23:55;;;;;;;;;;;;;;;7.29;100.00;98157.06;5092516;27;19980;-96
2023/12/12 08:26:24;;;;;;;;;;;;;;;7.17;100.00;98154.88;5081383;28;19915;-96
2023/12/12 08:28:50;;;;;;;;;;;;;;;7.06;100.00;98157.94;5097774;28;20007;-96
2023/12/12 08:31:15;;;;;;;;;;;;;;;6.95;100.00;98160.00;5080748;28;19947;-90
2023/12/12 08:33:42;;;;;;;;;;;;;;;6.88;100.00;98169.56;5094323;27;19955;-91
2023/12/12 08:36:08;;;;;;;;;;;;;;;6.79;100.00;98166.19;5097803;27;20279;-96
2023/12/12 08:38:34;;;;;;;;;;;;;;;6.73;100.00;98168.72;5085648;27;19916;-96
2023/12/12 08:40:59;;;;;;;;;;;;;;;6.73;100.00;98173.97;5078628;28;19920;-96
2023/12/12 08:43:25;;;;;;;;;;;;;;;6.72;100.00;98167.09;5099776;28;19915;-96
2023/12/12 08:45:52;;;;;;;;;;;;;;;6.70;100.00;98173.31;5084818;27;19923;-91
2023/12/12 08:48:18;;;;;;;;;;;;;;;6.72;100.00;98173.13;5074969;27;20003;-92
2023/12/12 08:50:44;;;;;;;;;;;;;;;6.76;100.00;98170.97;5095103;27;19962;-96
2023/12/12 08:53:10;;;;;;;;;;;;;;;6.80;100.00;98173.06;5079906;27;19968;-96
2023/12/12 08:55:36;;;;;;;;;;;;;;;6.83;100.00;98177.19;5081686;28;19916;-96
2023/12/12 08:58:02;;;;;;;;;;;;;;;6.86;100.00;98179.44;5081344;27;19916;-96
2023/12/12 09:00:28;;;;;;;;;;;;;;;6.88;100.00;98177.44;5101063;27;19972;-96
2023/12/12 09:02:54;;;;;;;;;;;;;;;6.92;100.00;98180.53;5099208;27;20010;-96
2023/12/12 09:05:20;;;;;;;;;;;;;;;6.96;100.00;98171.31;5114374;27;19943;-92
2023/12/12 09:07:46;;;;;;;;;;;;;;;6.98;100.00;98174.56;5094131;27;20358;-91
2023/12/12 09:10:11;;;;;;;;;;;;;;;7.00;100.00;98175.22;5077874;27;19921;-91
2023/12/12 09:12:37;;;;;;;;;;;;;;;7.01;100.00;98168.97;5074997;28;19915;-91
2023/12/12 09:15:03;;;;;;;;;;;;;;;7.03;100.00;98176.66;5078536;27;20010;-91
2023/12/12 09:17:28;;;;;;;;;;;;;;;7.05;100.00;98179.94;5100927;27;20025;-96
2023/12/12 09:19:54;;;;;;;;;;;;;;;7.03;100.00;98180.13;5082702;28;19916;-96
2023/12/12 09:22:20;;;;;;;;;;;;;;;7.07;100.00;98188.47;5094051;27;19920;-96
2023/12/12 09:24:45;;;;;;;;;;;;;;;7.08;100.00;98184.84;5121011;27;19915;-96
2023/12/12 09:27:11;;;;;;;;;;;;;;;7.11;100.00;98191.53;5084573;28;19922;-96
2023/12/12 09:29:36;;;;;;;;;;;;;;;7.11;100.00;98188.91;5089061;27;19915;-96
2023/12/12 09:32:02;;;;;;;;;;;;;;;7.12;100.00;98191.38;5083752;27;19930;-96
2023/12/12 09:34:28;;;;;;;;;;;;;;;7.16;100.00;98191.84;5083853;27;19972;-96
2023/12/12 09:36:54;;;;;;;;;;;;;;;7.20;100.00;98193.09;5095306;28;19923;-96
2023/12/12 09:39:20;;;;;;;;;;;;;;;7.24;100.00;98193.56;5077637;27;19916;-96
2023/12/12 09:41:47;;;;;;;;;;;;;;;7.26;100.00;98192.38;5090977;27;19919;-96
2023/12/12 09:44:19;;;;;;;;;;;;;;;7.27;100.00;98199.28;5087946;27;19924;-96
2023/12/12 09:46:48;;;;;;;;;;;;;;;7.26;100.00;98202.91;5101985;27;19927;-96
2023/12/12 09:49:14;;;;;;;;;;;;;;;7.25;100.00;98213.59;5084942;28;20010;-96
2023/12/12 09:51:43;;;;;;;;;;;;;;;7.26;100.00;98220.50;5095749;27;19923;-96
2023/12/12 09:54:13;;;;;;;;;;;;;;;7.26;100.00;98213.41;5086929;27;19954;-96
2023/12/12 09:56:40;;;;;;;;;;;;;;;7.26;100.00;98216.03;5093951;27;19919;-96
2023/12/12 09:59:06;;;;;;;;;;;;;;;7.26;100.00;98213.41;5089240;28;19916;-96
2023/12/12 10:01:35;;;;;;;;;;;;;;;7.27;100.00;98209.81;5081699;27;19919;-91
2023/12/12 10:04:05;;;;;;;;;;;;;;;7.28;100.00;98218.47;5111993;28;20018;-92
2023/12/12 10:06:34;;;;;;;;;;;;;;;7.29;100.00;98217.50;5097144;27;19915;-96
2023/12/12 10:09:00;;;;;;;;;;;;;;;7.36;100.00;98218.41;5081233;28;20267;-96
2023/12/12 10:11:26;;;;;;;;;;;;;;;7.41;100.00;98212.63;5107221;28;20018;-96
2023/12/12 10:13:56;;;;;;;;;;;;;;;7.44;100.00;98220.16;5082445;27;19980;-96
2023/12/12 10:16:22;;;;;;;;;;;;;;;7.49;100.00;98214.34;5081811;27;19922;-96
2023/12/12 10:18:50;;;;;;;;;;;;;;;7.52;100.00;98214.00;5085296;28;19916;-96
2023/12/12 10:21:19;;;;;;;;;;;;;;;7.53;100.00;98216.44;5071604;28;19924;-96
2023/12/12 10:23:46;;;;;;;;;;;;;;;7.60;100.00;98226.25;5101011;28;19916;-92
2023/12/12 10:26:12;;;;;;;;;;;;;;;7.66;100.00;98223.69;5116068;28;19960;-96
2023/12/12 10:28:38;;;;;;;;;;;;;;;7.71;100.00;98225.78;5079769;28;19995;-96
2023/12/12 10:31:05;;;;;;;;;;;;;;;7.77;100.00;98232.16;5079415;28;20286;-96
2023/12/12 10:33:31;;;;;;;;;;;;;;;7.80;100.00;98231.78;5073184;28;19922;-96
2023/12/12 10:36:00;;;;;;;;;;;;;;;7.84;100.00;98230.44;5080396;28;19920;-96
2023/12/12 10:38:26;;;;;;;;;;;;;;;7.86;100.00;98231.06;5096907;28;20002;-96
2023/12/12 10:40:51;;;;;;;;;;;;;;;7.89;100.00;98229.88;5078127;28;19963;-90
2023/12/12 10:43:17;;;;;;;;;;;;;;;7.93;100.00;98231.16;5077524;28;20418;-90
2023/12/12 10:45:43;;;;;;;;;;;;;;;7.97;100.00;98235.06;5082023;28;19928;-91
2023/12/12 10:48:11;;;;;;;;;;;;;;;8.02;100.00;98234.50;5071523;27;19915;-91
2023/12/12 10:50:38;;;;;;;;;;;;;;;8.03;100.00;98233.50;5083831;27;20032;-96
2023/12/12 10:53:05;;;;;;;;;;;;;;;8.06;100.00;98233.97;5081562;27;19955;-96
2023/12/12 10:55:32;;;;;;;;;;;;;;;8.09;100.00;98237.22;5087646;27;20260;-96
2023/12/12 10:57:58;;;;;;;;;;;;;;;8.10;100.00;98237.03;5086919;27;19915;-96
2023/12/12 11:00:24;;;;;;;;;;;;;;;8.12;100.00;98236.88;5092798;27;19920;-96
2023/12/12 11:02:50;;;;;;;;;;;;;;;8.14;100.00;98234.84;5086092;27;20424;-96
2023/12/12 11:05:16;;;;;;;;;;;;;;;8.17;100.00;98234.50;5084015;27;20620;-96
2023/12/12 11:07:45;;;;;;;;;;;;;;;8.21;100.00;98235.75;5078292;27;19916;-96
2023/12/12 11:10:13;;;;;;;;;;;;;;;8.26;100.00;98236.03;5083706;27;19923;-96
2023/12/12 11:12:41;;;;;;;;;;;;;;;8.30;100.00;98236.47;5078981;27;19916;-96
2023/12/12 11:15:09;;;;;;;;;;;;;;;8.35;100.00;98235.91;5101572;27;19916;-96
2023/12/12 11:17:35;;;;;;;;;;;;;;;8.39;100.00;98234.56;5080265;28;19920;-96
2023/12/12 11:20:12;;;;;;;;;;;;;;;8.39;100.00;98237.97;5087214;27;19973;-96
2023/12/12 11:22:39;;;;;;;;;;;;;;;8.41;100.00;98233.34;5083743;27;19920;-96
2023/12/12 11:25:08;;;;;;;;;;;;;;;8.46;100.00;98237.25;5076880;27;20025;-96
2023/12/12 11:27:44;;;;;;;;;;;;;;;8.47;100.00;98234.44;5100374;27;19919;-96
2023/12/12 11:30:10;;;;;;;;;;;;;;;8.54;100.00;98234.50;5092129;27;19916;-96
2023/12/12 11:32:36;;;;;;;;;;;;;;;8.60;100.00;98228.53;5088398;27;19964;-96
2023/12/12 11:35:08;;;;;;;;;;;;;;;8.67;100.00;98233.84;5086527;27;19916;-87
2023/12/12 11:37:40;;;;;;;;;;;;;;;8.72;100.00;98235.94;5074212;27;19924;-96
2023/12/12 11:40:06;;;;;;;;;;;;;;;8.75;100.00;98231.13;5101475;27;19919;-96
2023/12/12 11:42:32;;;;;;;;;;;;;;;8.76;100.00;98237.22;5101570;27;19976;-96
2023/12/12 11:44:58;;;;;;;;;;;;;;;8.78;100.00;98240.44;5101573;27;19931;-96
2023/12/12 11:47:25;;;;;;;;;;;;;;;8.81;100.00;98237.44;5080452;27;19930;-90
2023/12/12 11:50:20;;;;;;;;;;;;;;;8.86;100.00;98239.50;5099855;27;19916;-89
2023/12/12 11:52:45;;;;;;;;;;;;;;;8.95;100.00;98241.00;5082713;27;19915;-90
2023/12/12 11:55:19;;;;;;;;;;;;;;;8.97;100.00;98239.00;5078008;27;20284;-90
2023/12/12 11:57:45;;;;;;;;;;;;;;;9.00;100.00;98243.91;5080638;27;19937;-96
2023/12/12 12:00:15;;;;;;;;;;;;;;;9.01;100.00;98248.19;5089707;27;19916;-96
2023/12/12 12:02:40;;;;;;;;;;;;;;;9.03;100.00;98250.63;5117517;27;19941;-96
2023/12/12 12:05:06;;;;;;;;;;;;;;;9.06;100.00;98243.16;5082774;28;19916;-96
2023/12/12 12:07:32;;;;;;;;;;;;;;;9.10;100.00;98256.78;5096863;27;20436;-96
2023/12/12 12:09:58;;;;;;;;;;;;;;;9.16;100.00;98257.81;5082103;27;19916;-96
2023/12/12 12:12:24;;;;;;;;;;;;;;;9.18;100.00;98256.66;5086096;28;19919;-96
2023/12/12 12:14:49;;;;;;;;;;;;;;;9.25;100.00;98261.16;5085170;27;19916;-96
2023/12/12 12:17:15;;;;;;;;;;;;;;;9.28;100.00;98263.41;5087937;28;19916;-88
2023/12/12 12:19:40;;;;;;;;;;;;;;;9.33;100.00;98262.84;5083534;27;19968;-89
2023/12/12 12:22:08;;;;;;;;;;;;;;;9.34;100.00;98256.56;5091539;27;20069;-96
2023/12/12 12:24:41;;;;;;;;;;;;;;;9.36;100.00;98254.56;5082696;28;20307;-96
2023/12/12 12:27:07;;;;;;;;;;;;;;;9.41;100.00;98255.59;5081071;27;19923;-90
2023/12/12 12:29:32;;;;;;;;;;;;;;;9.46;100.00;98249.75;5080706;28;19926;-89
2023/12/12 12:32:14;;;;;;;;;;;;;;;9.49;100.00;98249.38;5123765;27;19915;-90
2023/12/12 12:34:39;;;;;;;;;;;;;;;9.54;100.00;98254.88;5086762;27;19923;-90
2023/12/12 12:37:06;;;;;;;;;;;;;;;9.56;100.00;98249.41;5079651;27;19930;-88
2023/12/12 12:39:44;;;;;;;;;;;;;;;9.60;100.00;98249.84;5069863;27;20383;-89
2023/12/12 12:42:09;;;;;;;;;;;;;;;9.63;100.00;98255.56;5080887;27;19920;-96
2023/12/12 12:44:36;;;;;;;;;;;;;;;9.65;100.00;98256.19;5074369;27;19916;-96